Time;durP1;ratioP1;P1;durP2;ratioP2;P2;SDS_P1;SDS_P2;PMS_P1;PMS_P2;Temp;Humidity;BMP_temperature;BMP_pressure;BME280_temperature;BME280_humidity;BME280_pressure;Samples;Min_cycle;Max_cycle;Signal;HPM_P1;HPM_P2
2022/02/21 20:33:24;;;;;;;5.88;1.77;;;;;;;7.91;64.43;99398.78;1083584;54;20373;-76
2022/02/21 20:34:28;;;;;;;6.47;1.65;;;;;;;7.56;65.29;99410.91;1083899;54;20034;-77
2022/02/21 20:35:35;;;;;;;11.60;2.17;;;;;;;7.65;65.14;99415.38;1083278;54;20034;-78
2022/02/21 20:36:39;;;;;;;6.80;2.03;;;;;;;7.42;65.48;99420.13;1083538;46;20145;-78
2022/02/21 20:37:43;;;;;;;6.45;1.60;;;;;;;7.25;66.47;99425.19;1083372;54;20039;-76
2022/02/21 20:38:45;;;;;;;7.07;1.77;;;;;;;7.16;66.45;99426.00;1083473;39;20457;-77
2022/02/21 20:39:49;;;;;;;8.20;2.20;;;;;;;7.07;67.17;99426.81;1083494;54;20082;-76
2022/02/21 20:40:53;;;;;;;7.25;1.90;;;;;;;7.08;67.33;99428.50;1083371;54;20061;-77
2022/02/21 20:41:57;;;;;;;8.80;1.95;;;;;;;7.02;67.50;99425.41;1083021;54;20077;-77
2022/02/21 20:43:01;;;;;;;7.75;1.63;;;;;;;7.08;67.29;99431.16;1083898;46;20074;-77
2022/02/21 20:44:06;;;;;;;7.82;1.88;;;;;;;6.96;67.96;99435.75;1083109;47;20585;-76
2022/02/21 20:45:09;;;;;;;3.95;1.40;;;;;;;7.11;67.75;99434.38;1083234;54;20142;-78
2022/02/21 20:46:13;;;;;;;5.97;2.03;;;;;;;6.91;68.14;99437.97;1083185;54;20076;-77
2022/02/21 20:47:15;;;;;;;8.27;2.80;;;;;;;6.87;68.08;99442.72;1083408;54;20608;-77
2022/02/21 20:48:22;;;;;;;8.75;2.97;;;;;;;6.94;67.77;99437.72;1083348;46;20042;-77
2022/02/21 20:49:27;;;;;;;7.05;2.88;;;;;;;6.90;67.82;99453.06;1083195;54;20110;-77
2022/02/21 20:50:28;;;;;;;8.48;2.17;;;;;;;6.88;67.80;99460.34;1083078;54;20631;-77
2022/02/21 20:51:33;;;;;;;8.07;1.67;;;;;;;6.81;68.08;99460.03;1083132;54;20058;-77
2022/02/21 20:52:34;;;;;;;5.28;1.42;;;;;;;6.89;67.57;99477.97;1083266;54;20050;-77
2022/02/21 20:53:39;;;;;;;7.32;2.10;;;;;;;6.86;67.67;99467.63;1083344;54;20125;-76
2022/02/21 20:54:41;;;;;;;5.10;1.35;;;;;;;6.81;67.77;99480.44;1083738;39;20452;-77
2022/02/21 20:56:02;;;;;;;7.28;1.88;;;;;;;6.75;67.69;99487.16;1083379;54;20137;-78
2022/02/21 20:57:07;;;;;;;5.60;1.63;;;;;;;6.74;67.81;99490.78;1083945;54;20034;-77
2022/02/21 20:58:11;;;;;;;7.72;1.50;;;;;;;6.79;67.41;99506.34;1083622;54;20070;-77
2022/02/21 20:59:12;;;;;;;9.77;2.05;;;;;;;6.76;67.62;99506.59;1083858;54;20046;-77
2022/02/21 21:00:20;;;;;;;6.78;1.70;;;;;;;6.81;67.55;99504.34;1086939;54;20046;-77
2022/02/21 21:01:31;;;;;;;5.82;1.75;;;;;;;6.82;67.43;99506.03;1087157;46;20038;-78
2022/02/21 21:04:54;;;;;;;9.40;2.00;;;;;;;6.76;67.05;99509.25;1085281;54;20138;-78
2022/02/21 21:06:06;;;;;;;6.82;1.50;;;;;;;6.62;67.44;99519.22;1086769;47;20034;-79
2022/02/21 21:07:07;;;;;;;9.73;2.10;;;;;;;6.65;67.49;99512.84;1087905;39;20508;-80
2022/02/21 21:08:15;;;;;;;8.43;2.20;;;;;;;6.65;67.53;99518.16;1086315;54;20061;-78
2022/02/21 21:09:17;;;;;;;7.00;1.55;;;;;;;6.68;67.39;99525.84;1086348;54;20038;-78
2022/02/21 21:10:23;;;;;;;5.00;1.40;;;;;;;6.61;67.73;99511.41;1085806;54;20057;-79
2022/02/21 21:11:25;;;;;;;5.57;1.35;;;;;;;6.69;67.32;99519.56;1083411;54;20039;-78
2022/02/21 21:12:30;;;;;;;8.35;1.60;;;;;;;6.67;66.99;99510.88;1082865;54;20084;-78
2022/02/21 21:13:31;;;;;;;6.55;1.60;;;;;;;6.83;66.92;99513.91;1083053;54;20043;-78
2022/02/21 21:14:36;;;;;;;7.45;1.90;;;;;;;6.82;66.67;99521.97;1083276;54;20046;-78
2022/02/21 21:15:43;;;;;;;6.65;1.92;;;;;;;6.84;66.75;99525.34;1083087;54;20043;-79
2022/02/21 21:16:48;;;;;;;6.70;1.92;;;;;;;6.91;66.59;99526.50;1083113;46;20061;-78
2022/02/21 21:18:15;;;;;;;6.35;1.90;;;;;;;6.76;66.19;99525.19;1083404;54;20090;-77
2022/02/21 21:19:28;;;;;;;6.57;2.13;;;;;;;6.83;66.23;99536.94;1084089;54;20046;-80
2022/02/21 21:20:38;;;;;;;8.85;2.45;;;;;;;6.90;66.03;99531.97;1084185;54;20034;-80
2022/02/21 21:21:42;;;;;;;7.25;2.28;;;;;;;7.00;65.62;99527.53;1084487;54;20065;-80
2022/02/21 21:22:47;;;;;;;6.18;1.92;;;;;;;6.91;66.00;99531.81;1083986;54;20069;-78
2022/02/21 21:23:49;;;;;;;5.07;1.33;;;;;;;6.99;65.63;99524.00;1084629;46;20034;-77
2022/02/21 21:24:54;;;;;;;5.38;1.50;;;;;;;6.88;65.74;99529.44;1086110;54;20070;-82
2022/02/21 21:25:55;;;;;;;7.60;1.70;;;;;;;6.89;65.69;99524.97;1087070;54;20110;-79
2022/02/21 21:26:59;;;;;;;6.07;1.45;;;;;;;7.00;65.27;99522.22;1087096;46;20041;-81
2022/02/21 21:28:01;;;;;;;5.22;1.50;;;;;;;6.98;65.56;99524.16;1086050;54;20037;-78
2022/02/21 21:29:15;;;;;;;6.25;1.65;;;;;;;7.09;65.24;99541.81;1082887;54;20038;-80
2022/02/21 21:30:17;;;;;;;7.13;1.30;;;;;;;6.87;65.76;99533.06;1083335;54;20081;-78
2022/02/21 21:31:21;;;;;;;4.07;1.48;;;;;;;6.99;65.51;99547.94;1084042;39;20445;-78
2022/02/21 21:32:23;;;;;;;5.03;1.52;;;;;;;6.99;65.91;99544.44;1083997;39;20440;-78
2022/02/21 21:33:28;;;;;;;6.70;1.75;;;;;;;6.84;66.26;99539.50;1083462;39;20420;-77
2022/02/21 21:34:30;;;;;;;6.80;1.40;;;;;;;6.94;66.20;99544.00;1083107;54;20061;-77
2022/02/21 21:35:36;;;;;;;5.82;1.80;;;;;;;6.73;67.19;99542.25;1085229;54;20181;-78
2022/02/21 21:36:40;;;;;;;6.00;2.00;;;;;;;6.91;66.67;99549.59;1085965;54;20050;-78
2022/02/21 21:37:42;;;;;;;6.40;1.80;;;;;;;7.03;66.55;99553.84;1085814;54;20061;-78
2022/02/21 21:38:46;;;;;;;7.05;2.25;;;;;;;7.05;66.43;99540.41;1085482;54;20046;-78
2022/02/21 21:39:48;;;;;;;7.07;1.70;;;;;;;7.10;66.25;99546.16;1085815;54;20070;-78
2022/02/21 21:40:52;;;;;;;6.45;1.92;;;;;;;6.93;66.58;99548.47;1086198;54;20038;-78
2022/02/21 21:42:00;;;;;;;7.00;1.90;;;;;;;6.91;66.70;99558.38;1086082;54;20038;-78
2022/02/21 21:43:04;;;;;;;7.00;1.88;;;;;;;6.89;66.73;99548.88;1085917;54;20034;-79
2022/02/21 21:44:06;;;;;;;8.07;2.00;;;;;;;6.95;66.76;99558.97;1085975;54;20048;-79
2022/02/21 21:45:11;;;;;;;7.38;2.05;;;;;;;6.96;66.86;99558.84;1085527;54;20038;-78
2022/02/21 21:46:13;;;;;;;6.38;1.83;;;;;;;7.00;66.71;99552.28;1085938;54;20638;-79
2022/02/21 21:47:17;;;;;;;6.35;1.85;;;;;;;6.99;66.55;99558.56;1086112;54;20038;-78
2022/02/21 21:48:18;;;;;;;5.60;1.30;;;;;;;6.91;66.31;99557.56;1086063;54;20049;-78
2022/02/21 21:49:22;;;;;;;8.38;1.92;;;;;;;6.91;66.31;99558.38;1087074;39;20292;-79
2022/02/21 21:50:24;;;;;;;8.07;1.52;;;;;;;7.00;65.98;99554.94;1086786;54;20107;-77
2022/02/21 21:51:31;;;;;;;6.20;2.00;;;;;;;7.03;65.67;99554.66;1086472;54;20986;-78
2022/02/21 21:52:39;;;;;;;5.07;1.45;;;;;;;7.06;65.59;99558.88;1086939;46;20046;-78
2022/02/21 21:53:44;;;;;;;8.38;1.58;;;;;;;7.09;65.58;99563.06;1086668;54;20126;-78
2022/02/21 21:54:45;;;;;;;5.63;1.45;;;;;;;6.91;65.35;99570.84;1086663;54;20038;-77
2022/02/21 21:55:50;;;;;;;7.10;1.30;;;;;;;6.98;65.26;99567.53;1086931;54;20058;-77
2022/02/21 21:57:00;;;;;;;6.43;1.63;;;;;;;7.08;64.87;99572.03;1086723;54;20034;-80
2022/02/21 21:58:04;;;;;;;6.18;1.73;;;;;;;6.95;65.23;99569.59;1086393;54;20041;-79
2022/02/21 21:59:06;;;;;;;5.47;1.98;;;;;;;7.00;65.01;99570.88;1086540;54;20050;-78
2022/02/21 22:00:12;;;;;;;5.32;1.30;;;;;;;7.12;64.85;99581.41;1086569;54;20034;-77
2022/02/21 22:01:14;;;;;;;5.13;1.42;;;;;;;7.18;64.67;99578.22;1086410;54;20662;-77
2022/02/21 22:02:18;;;;;;;9.05;1.55;;;;;;;7.15;64.48;99586.47;1086628;54;20098;-78
2022/02/21 22:03:20;;;;;;;6.82;1.75;;;;;;;7.17;64.41;99584.53;1086413;54;20589;-78
2022/02/21 22:04:24;;;;;;;9.45;2.17;;;;;;;7.00;64.56;99578.84;1086671;54;20038;-77
2022/02/21 22:05:26;;;;;;;9.02;2.28;;;;;;;6.99;64.54;99582.47;1086725;54;20045;-77
2022/02/21 22:06:32;;;;;;;5.90;1.92;;;;;;;7.06;64.57;99584.63;1086586;54;20727;-77
2022/02/21 22:07:34;;;;;;;5.70;1.58;;;;;;;7.14;64.26;99595.44;1086540;54;20046;-77
2022/02/21 22:08:39;;;;;;;5.88;1.60;;;;;;;7.18;64.05;99588.84;1088992;39;20583;-78
2022/02/21 22:09:43;;;;;;;5.38;1.30;;;;;;;7.16;64.33;99596.97;1086789;54;20065;-78
2022/02/21 22:10:50;;;;;;;5.30;1.40;;;;;;;7.17;63.98;99595.16;1087093;54;20050;-76
2022/02/21 22:11:55;;;;;;;6.05;1.70;;;;;;;6.98;64.38;99594.09;1084265;54;20049;-81
2022/02/21 22:13:00;;;;;;;4.85;1.30;;;;;;;7.09;64.28;99602.94;1085200;39;20560;-77
2022/02/21 22:14:14;;;;;;;5.20;1.63;;;;;;;7.12;64.46;99600.03;1087057;54;20066;-79
2022/02/21 22:15:21;;;;;;;5.88;1.63;;;;;;;6.97;64.95;99600.41;1087135;54;20042;-77
2022/02/21 22:16:22;;;;;;;12.27;2.03;;;;;;;7.07;64.78;99597.75;1085353;54;20046;-79
2022/02/21 22:17:26;;;;;;;6.20;1.80;;;;;;;7.11;64.57;99601.84;1084852;54;20042;-77
2022/02/21 22:18:28;;;;;;;6.07;1.42;;;;;;;7.18;64.58;99610.13;1086007;54;20049;-78
2022/02/21 22:19:32;;;;;;;6.72;1.20;;;;;;;7.06;64.81;99603.22;1086043;54;20042;-77
2022/02/21 22:20:34;;;;;;;7.80;2.22;;;;;;;6.96;64.97;99605.81;1086052;54;20042;-78
2022/02/21 22:21:41;;;;;;;5.97;1.52;;;;;;;6.96;65.13;99612.00;1084321;54;20069;-78
2022/02/21 22:22:45;;;;;;;6.40;1.80;;;;;;;6.99;65.11;99610.88;1083955;54;20675;-79
2022/02/21 22:23:49;;;;;;;8.50;2.35;;;;;;;6.85;65.42;99609.41;1084237;54;20049;-78
2022/02/21 22:24:53;;;;;;;7.10;2.20;;;;;;;6.96;65.16;99608.47;1084289;54;20565;-79
2022/02/21 22:25:55;;;;;;;8.20;1.90;;;;;;;7.00;65.01;99613.41;1084690;54;20043;-78
2022/02/21 22:26:59;;;;;;;8.57;1.73;;;;;;;6.97;65.19;99613.69;1084495;54;20042;-76
2022/02/21 22:28:07;;;;;;;6.57;1.45;;;;;;;7.02;64.87;99629.22;1084545;54;20042;-79
2022/02/21 22:29:09;;;;;;;7.95;1.80;;;;;;;6.88;65.00;99619.78;1085278;54;20058;-79
2022/02/21 22:30:14;;;;;;;6.20;2.00;;;;;;;6.98;64.83;99628.66;1085350;54;20042;-80
2022/02/21 22:31:19;;;;;;;6.75;2.17;;;;;;;6.97;65.08;99624.31;1085638;54;20054;-79
2022/02/21 22:32:21;;;;;;;6.43;1.83;;;;;;;6.86;65.06;99627.03;1086074;46;20030;-80
2022/02/21 22:33:25;;;;;;;8.02;1.80;;;;;;;6.86;65.12;99632.34;1085082;54;20049;-80
2022/02/21 22:34:26;;;;;;;6.32;1.77;;;;;;;6.95;64.95;99633.38;1085676;54;20042;-79
2022/02/21 22:35:30;;;;;;;8.23;1.85;;;;;;;7.02;64.74;99629.22;1085686;54;20049;-79
2022/02/21 22:36:35;;;;;;;8.88;1.83;;;;;;;7.09;64.66;99626.88;1086100;39;20449;-80
2022/02/21 22:37:39;;;;;;;5.50;1.50;;;;;;;7.15;64.34;99631.66;1086140;39;20457;-79
2022/02/21 22:38:43;;;;;;;6.88;2.00;;;;;;;7.16;64.30;99628.03;1085634;54;20631;-79
2022/02/21 22:39:45;;;;;;;6.43;1.40;;;;;;;7.07;64.69;99634.97;1085346;54;20055;-79
2022/02/21 22:40:49;;;;;;;6.95;1.70;;;;;;;7.05;64.65;99630.78;1084754;54;20038;-78
2022/02/21 22:41:51;;;;;;;6.53;1.73;;;;;;;7.08;64.69;99633.19;1084482;46;20561;-78
2022/02/21 22:42:56;;;;;;;5.55;1.50;;;;;;;7.12;64.47;99634.59;1086459;54;20045;-76
2022/02/21 22:43:58;;;;;;;4.82;1.23;;;;;;;7.19;64.45;99630.41;1087259;46;20066;-79
2022/02/21 22:45:03;;;;;;;7.30;1.70;;;;;;;6.99;64.68;99630.31;1086758;54;20050;-77
2022/02/21 22:46:07;;;;;;;6.13;1.50;;;;;;;7.07;64.62;99629.66;1086088;54;20040;-78
2022/02/21 22:47:12;;;;;;;6.15;1.90;;;;;;;7.08;64.73;99627.88;1085277;54;20069;-78
2022/02/21 22:48:13;;;;;;;5.70;1.50;;;;;;;7.06;64.65;99648.41;1083964;54;20082;-78
2022/02/21 22:49:17;;;;;;;9.18;1.60;;;;;;;7.10;64.44;99639.19;1083758;47;20606;-79
2022/02/21 22:50:21;;;;;;;7.55;1.77;;;;;;;7.18;64.24;99637.56;1084005;54;20038;-78
2022/02/21 22:51:35;;;;;;;8.57;1.80;;;;;;;7.03;64.66;99642.38;1084097;54;20046;-78
2022/02/21 22:52:41;;;;;;;9.25;1.90;;;;;;;7.06;65.01;99643.94;1084199;54;20565;-79
2022/02/21 22:53:43;;;;;;;5.88;1.55;;;;;;;6.91;65.03;99650.56;1084992;54;20061;-78
2022/02/21 22:54:50;;;;;;;9.20;2.10;;;;;;;7.01;65.12;99646.97;1089136;39;20521;-78
2022/02/21 22:55:53;;;;;;;5.15;1.73;;;;;;;7.14;64.44;99645.94;1087197;54;20039;-78
2022/02/21 22:56:57;;;;;;;7.50;1.67;;;;;;;7.20;64.73;99650.72;1089260;39;20552;-77
2022/02/21 22:58:08;;;;;;;6.22;1.70;;;;;;;7.22;64.21;99655.91;1086726;54;20565;-80
2022/02/21 22:59:12;;;;;;;7.03;1.65;;;;;;;7.15;64.48;99658.25;1086993;54;20023;-78
2022/02/21 23:00:50;;;;;;;6.68;1.73;;;;;;;7.18;64.31;99657.97;1087334;54;20050;-77
2022/02/21 23:01:54;;;;;;;9.02;2.03;;;;;;;7.23;64.19;99661.09;1087120;54;20057;-77
2022/02/21 23:02:55;;;;;;;5.22;1.17;;;;;;;7.25;64.11;99659.16;1086951;54;20034;-79
2022/02/21 23:05:33;;;;;;;7.43;1.55;;;;;;;7.14;64.36;99675.19;1086762;54;20222;-80
2022/02/21 23:06:36;;;;;;;7.75;2.25;;;;;;;7.05;64.57;99678.63;1086876;54;20072;-80
2022/02/21 23:08:59;;;;;;;7.85;2.38;;;;;;;6.96;64.76;99670.47;1086440;54;20067;-79
2022/02/21 23:10:01;;;;;;;6.60;1.77;;;;;;;7.09;64.72;99675.56;1086505;54;20042;-78
2022/02/21 23:11:05;;;;;;;7.00;1.70;;;;;;;7.05;64.65;99681.28;1086649;54;20042;-77
2022/02/21 23:12:08;;;;;;;8.18;1.88;;;;;;;6.99;64.62;99675.50;1087233;54;20065;-78
2022/02/21 23:13:13;;;;;;;8.00;2.15;;;;;;;7.20;64.41;99679.94;1086927;54;20007;-78
2022/02/21 23:14:15;;;;;;;9.73;1.98;;;;;;;7.03;64.57;99678.75;1087233;46;20034;-78
2022/02/21 23:15:19;;;;;;;6.10;1.77;;;;;;;7.01;64.82;99684.19;1087336;54;20058;-78
2022/02/21 23:16:20;;;;;;;8.23;1.90;;;;;;;7.07;64.62;99682.00;1089346;39;20247;-79
2022/02/21 23:17:25;;;;;;;7.43;1.90;;;;;;;7.07;64.58;99688.13;1087327;46;20034;-80
2022/02/21 23:18:26;;;;;;;9.48;2.65;;;;;;;7.09;64.47;99690.66;1086657;54;20054;-78
2022/02/21 23:19:30;;;;;;;13.13;2.38;;;;;;;7.07;64.35;99688.13;1087433;54;20034;-77
2022/02/21 23:20:35;;;;;;;7.93;2.00;;;;;;;7.13;64.19;99682.28;1087195;54;20035;-78
2022/02/21 23:21:36;;;;;;;6.30;1.50;;;;;;;7.16;64.19;99675.91;1086639;54;20050;-78
2022/02/21 23:22:43;;;;;;;8.80;2.67;;;;;;;7.13;63.99;99681.47;1086756;54;20062;-78
2022/02/21 23:23:46;;;;;;;7.72;2.05;;;;;;;7.15;64.14;99679.53;1086812;54;20038;-79
2022/02/21 23:24:50;;;;;;;7.75;1.70;;;;;;;7.08;64.39;99684.50;1087262;54;20043;-78
2022/02/21 23:25:51;;;;;;;8.60;2.50;;;;;;;7.21;64.18;99681.66;1087079;54;20048;-79
2022/02/21 23:26:56;;;;;;;8.43;2.53;;;;;;;7.17;64.26;99677.56;1086909;54;20050;-78
2022/02/21 23:28:00;;;;;;;8.23;1.95;;;;;;;7.10;64.23;99689.69;1087021;54;20065;-79
2022/02/21 23:29:02;;;;;;;8.02;1.80;;;;;;;7.11;64.05;99694.03;1086971;54;20038;-78
2022/02/21 23:30:08;;;;;;;8.23;1.75;;;;;;;7.05;64.18;99697.22;1085912;54;20042;-79
2022/02/21 23:31:09;;;;;;;6.95;1.90;;;;;;;7.01;64.46;99700.13;1086053;54;20153;-78
2022/02/21 23:32:15;;;;;;;6.53;1.58;;;;;;;7.06;64.41;99696.25;1086427;54;20042;-78
2022/02/21 23:33:17;;;;;;;8.48;1.70;;;;;;;6.92;64.93;99695.59;1087779;46;20039;-77
2022/02/21 23:34:21;;;;;;;12.38;2.10;;;;;;;6.99;65.00;99702.06;1087332;46;20094;-78
2022/02/21 23:35:23;;;;;;;7.25;2.03;;;;;;;6.98;65.32;99696.91;1087568;54;20058;-77
2022/02/21 23:36:27;;;;;;;6.13;2.13;;;;;;;6.98;65.06;99691.59;1088683;46;20046;-77
2022/02/21 23:37:28;;;;;;;9.80;1.98;;;;;;;7.02;65.44;99688.53;1087608;54;20030;-77
2022/02/21 23:38:35;;;;;;;10.48;2.42;;;;;;;6.95;65.73;99689.19;1087726;54;20038;-77
2022/02/21 23:39:37;;;;;;;8.82;1.92;;;;;;;6.87;65.80;99685.34;1088383;46;20039;-76
2022/02/21 23:40:41;;;;;;;6.90;1.67;;;;;;;7.01;65.48;99681.53;1087885;54;20081;-75
2022/02/21 23:41:45;;;;;;;8.10;2.65;;;;;;;6.85;65.52;99689.97;1087843;54;20038;-77
2022/02/21 23:42:49;;;;;;;7.10;1.70;;;;;;;6.89;65.57;99692.38;1087391;54;20039;-78
2022/02/21 23:43:52;;;;;;;7.35;1.85;;;;;;;6.81;65.28;99693.00;1087420;54;20038;-77
2022/02/21 23:44:56;;;;;;;6.93;2.30;;;;;;;6.90;65.26;99691.41;1087643;54;20031;-78
2022/02/21 23:45:57;;;;;;;9.02;2.45;;;;;;;6.85;65.39;99695.28;1087556;39;20532;-79
2022/02/21 23:47:10;;;;;;;8.55;2.08;;;;;;;6.92;65.31;99694.78;1086625;54;20154;-79
2022/02/21 23:48:11;;;;;;;9.38;2.42;;;;;;;6.86;65.35;99701.44;1085841;54;20066;-76
2022/02/21 23:49:18;;;;;;;6.88;1.58;;;;;;;6.93;65.03;99696.47;1086140;54;20038;-79
2022/02/21 23:50:22;;;;;;;9.10;2.30;;;;;;;6.84;64.85;99708.69;1089198;39;20411;-78
2022/02/21 23:51:24;;;;;;;9.85;1.60;;;;;;;6.88;65.16;99715.44;1086075;54;20039;-78
2022/02/21 23:52:28;;;;;;;10.80;1.85;;;;;;;6.87;64.84;99719.06;1086715;54;20035;-77
2022/02/21 23:53:48;;;;;;;9.18;2.47;;;;;;;7.00;64.78;99714.41;1087334;54;20035;-79
2022/02/21 23:54:57;;;;;;;7.03;1.60;;;;;;;7.10;64.28;99710.97;1088176;46;20086;-79
2022/02/21 23:55:59;;;;;;;14.35;2.10;;;;;;;6.91;64.75;99717.84;1087098;54;20133;-79
2022/02/21 23:57:04;;;;;;;8.05;1.80;;;;;;;6.92;65.03;99722.19;1086962;46;20040;-79
2022/02/21 23:58:06;;;;;;;8.35;1.67;;;;;;;6.87;64.99;99722.56;1086592;54;20039;-78
2022/02/21 23:59:10;;;;;;;8.52;1.60;;;;;;;6.91;65.27;99720.50;1088838;46;20157;-77
